Main page
METAR-TAF:

METAR-TAF

Airports :

Sligo, Ireland

Sligo Airport

latitude: 54-16-49N, longitude: 8-35-57W, elevation: 3 m

Current weather observation

The report was made 27 minutes ago, at 13:30 UTC
Wind 14 kt from the West/Northwest
Temperature 14°C
Humidity 77%
Pressure 1012 hPa
Visibility 10 km or more
Broken clouds at a height of 3800 ft

METAR: EISG 241330Z 29014KT 9999 BKN038 14/10 Q1012

Time: 14:57 (13:57 UTC)

Forecast

The report was made 2 hours and 57 minutes ago, at 11:00 UTC
Forecast valid from 24 at 12 UTC to 24 at 21 UTC
Wind 15 kt from the West
Visibility 10 km or more
Scattered clouds at a height of 2800 ft
Broken clouds at a height of 4000 ft
Temporary
from 24 at 12 UTC to 24 at 17 UTC
Wind 15 kt from the West with gusts up to 25 kt

TAF: EISG 241100Z 2412/2421 28015KT 9999 SCT028 BKN040 TEMPO 2412/2417 28015G25KT

Weather observations and forecasts of more than 4000 airports (METAR and TAF reports).

The available stations are represented by yellow and red dots on the map.

Hover mouse over dot to see the name of the station.

Then click to see weather observations and forecasts.

To change the map : click on the green buttons with a black cross to zoom in, on the green button with a dash to zoom out, or on the green arrows for adjacent maps.


METAR-TAF: